Reiles Acres, North Dakota
Current Conditions -  °F | °C
As of 10:53 PM on Saturday 22 Nov 2014 (Local Time) from KFAR Reporting Station
Haze Haze  
Wind Chill: 27°   Ceiling: 500
Heat Index: 36°   Visibility: 4mi
Dew Point: 33°   Wind: 15mph
Humidity: 89%   Direction: 170°S
Pressure: 29.38"   Gusts: NA
Location:  46.9259°N, 96.8507°W
Report Text: KFAR 230453Z 17013KT 4SM BR OVC005 02/01 A2938 RMK AO2 SLP959 T00220006
Loading
Personal Weather Stations






























Interactive Weather Map New forecast layout! Learn more

10-Day Weather Forecast

Advertisements
Track Severe Weather on mobile